createdAt,value
2018-04-16T00:00:45.917Z,15.08
2018-04-16T00:10:43.165Z,15.05
2018-04-16T00:20:37.760Z,14.91
2018-04-16T00:30:34.628Z,15.05
2018-04-16T00:40:31.184Z,15.05
2018-04-16T00:50:28.927Z,15.26
2018-04-16T01:00:27.998Z,15.23
2018-04-16T01:10:20.983Z,15.21
2018-04-16T01:20:16.667Z,15.23
2018-04-16T01:30:10.591Z,15.15
2018-04-16T01:40:08.014Z,15.06
2018-04-16T01:50:03.469Z,15.02
2018-04-16T01:59:59.411Z,14.93
2018-04-16T02:09:57.780Z,14.90
2018-04-16T02:19:55.884Z,14.84
2018-04-16T02:29:51.761Z,14.83
2018-04-16T02:39:45.740Z,14.91
2018-04-16T02:49:43.594Z,14.84
2018-04-16T02:59:39.822Z,14.72
2018-04-16T03:09:37.336Z,14.61
2018-04-16T03:19:35.381Z,14.67
2018-04-16T03:29:33.621Z,14.60
2018-04-16T03:39:31.368Z,14.39
2018-04-16T03:49:24.761Z,14.54
2018-04-16T03:59:23.842Z,14.65
2018-04-16T04:09:19.052Z,14.93
2018-04-16T04:19:13.157Z,14.72
2018-04-16T04:29:11.457Z,14.67
2018-04-16T04:39:08.741Z,14.67
2018-04-16T04:49:03.319Z,14.65
2018-04-16T04:59:02.788Z,14.67
2018-04-16T05:08:45.175Z,14.69
2018-04-16T05:18:37.493Z,14.71
2018-04-16T05:28:30.707Z,14.79
2018-04-16T05:38:25.724Z,14.94
2018-04-16T05:48:24.284Z,15.15
2018-04-16T05:58:19.933Z,15.31
2018-04-16T06:08:18.460Z,15.52
2018-04-16T06:18:14.851Z,15.60
2018-04-16T06:28:13.549Z,15.82
2018-04-16T06:38:09.922Z,16.07
2018-04-16T06:48:03.674Z,16.14
2018-04-16T06:58:01.249Z,16.47
2018-04-16T07:07:57.923Z,16.92
2018-04-16T07:17:51.182Z,16.82
2018-04-16T07:27:49.342Z,16.90
2018-04-16T07:37:46.556Z,17.08
2018-04-16T07:47:42.467Z,17.46
2018-04-16T07:57:38.945Z,17.84
2018-04-16T08:07:35.791Z,18.10
2018-04-16T08:17:28.729Z,18.76
2018-04-16T08:27:22.091Z,18.92
2018-04-16T08:37:17.814Z,19.46
2018-04-16T08:47:09.932Z,19.48
2018-04-16T08:57:07.208Z,20.03
2018-04-16T09:07:05.861Z,20.03
2018-04-16T09:17:02.216Z,20.37
2018-04-16T09:27:01.103Z,19.76
2018-04-16T09:36:57.741Z,19.75
2018-04-16T09:46:51.443Z,19.80
2018-04-16T09:56:49.104Z,19.69
2018-04-16T10:06:45.575Z,20.00
2018-04-16T10:16:39.985Z,20.16
2018-04-16T10:26:38.570Z,20.59
2018-04-16T10:36:33.803Z,21.06
2018-04-16T10:46:28.862Z,20.80
2018-04-16T10:56:27.011Z,20.94
2018-04-16T11:06:24.439Z,21.33
2018-04-16T11:16:19.529Z,20.61
2018-04-16T11:26:14.345Z,20.62
2018-04-16T11:36:13.245Z,21.30
2018-04-16T11:46:09.468Z,21.48
2018-04-16T11:56:05.889Z,21.30
2018-04-16T12:05:58.227Z,21.33
2018-04-16T12:15:53.547Z,20.89
2018-04-16T12:25:45.254Z,20.30
2018-04-16T12:35:41.267Z,19.97
2018-04-16T12:45:33.988Z,19.51
2018-04-16T12:55:31.472Z,19.38
2018-04-16T13:05:29.707Z,19.69
2018-04-16T13:15:26.902Z,20.28
2018-04-16T13:25:24.465Z,21.09
2018-04-16T13:35:19.793Z,20.99
2018-04-16T13:45:17.212Z,21.35
2018-04-16T13:54:59.237Z,23.17
2018-04-16T14:04:49.107Z,23.29
2018-04-16T14:14:46.964Z,23.23
2018-04-16T14:24:47.183Z,24.01
2018-04-16T14:34:38.676Z,24.02
2018-04-16T14:44:30.113Z,23.20
2018-04-16T14:54:23.278Z,22.02
2018-04-16T15:04:19.601Z,21.82
2018-04-16T15:14:16.061Z,21.59
2018-04-16T15:24:10.119Z,21.54
2018-04-16T15:34:02.664Z,20.79
2018-04-16T15:43:58.154Z,19.46
2018-04-16T15:53:51.374Z,18.28
2018-04-16T16:03:44.342Z,17.21
2018-04-16T16:13:36.553Z,16.55
2018-04-16T16:23:27.258Z,16.12
2018-04-16T16:33:21.301Z,15.70
2018-04-16T16:43:16.001Z,15.28
2018-04-16T16:53:12.039Z,14.59
2018-04-16T17:03:00.591Z,13.94
2018-04-16T17:12:54.268Z,14.07
2018-04-16T17:22:50.989Z,13.89
2018-04-16T17:32:41.791Z,14.14
2018-04-16T17:42:38.324Z,14.32
2018-04-16T17:52:36.455Z,14.13
2018-04-16T18:02:29.621Z,14.24
2018-04-16T18:12:26.915Z,14.50
2018-04-16T18:22:18.802Z,14.32
2018-04-16T18:32:15.342Z,14.31
2018-04-16T18:42:11.764Z,14.24
2018-04-16T18:52:08.240Z,14.20
2018-04-16T19:02:00.441Z,14.07
2018-04-16T19:11:54.296Z,14.10
2018-04-16T19:21:51.375Z,14.13
2018-04-16T19:31:48.805Z,13.98
2018-04-16T19:41:43.238Z,14.01
2018-04-16T19:51:36.269Z,13.95
2018-04-16T20:01:29.564Z,13.77
2018-04-16T20:11:22.928Z,13.77
2018-04-16T20:21:19.484Z,13.74
2018-04-16T20:31:15.613Z,13.78
2018-04-16T20:41:13.128Z,13.80
2018-04-16T20:51:10.317Z,13.78
2018-04-16T21:01:06.013Z,13.78
2018-04-16T21:11:02.553Z,13.77
2018-04-16T21:21:00.983Z,13.81
2018-04-16T21:30:57.184Z,13.59
2018-04-16T21:40:54.374Z,13.74
2018-04-16T21:50:51.901Z,13.58
2018-04-16T22:00:46.937Z,13.52
2018-04-16T22:10:44.368Z,13.55
2018-04-16T22:20:42.444Z,13.48
2018-04-16T22:30:37.242Z,13.56
2018-04-16T22:40:34.130Z,13.68
2018-04-16T22:50:32.298Z,13.87
2018-04-16T23:00:29.185Z,13.94
2018-04-16T23:10:24.983Z,13.98
2018-04-16T23:20:23.012Z,13.76
2018-04-16T23:30:21.008Z,13.77
2018-04-16T23:40:14.994Z,13.78
2018-04-16T23:50:12.816Z,13.73
